Decoded Metar for KMLS (MILES CITY in MT, USA) (IATA:MLS) | Meteo·Mobile Aviation Weather
aviador You're here:

KMLS Decoded Metar

MILES CITY in MT, USA
Report Time2019-08-24 12:53:00
UTC Time2019-08-24 13:37:52
Flight Rules vfr VFR
Wind160° at 08 kt
W.Decomp.*RWY 12: 7.1 kt HW 3.8 kt RCW
RWY 22: 2.5 kt HW 7.6 kt LCW
Visibility9999 m
Phenomena:N/A
Clouds:N/A
CeilingNone
Temp17°C (ISA +7)
Dew Point17°C (100% RH)
AAT16.5°C
QNH1011 hPa
Density Alt3,812 ft
Elevation2,628 ft
Report Wrong Elevation
Raw Report
KMLS 241253Z AUTO 16008KT 10SM CLR 17/17 A2985 RMK AO2 SLP091
T01720167=

Extra information for KMLS:More info

Metar Taf Metar & Taf Last 4 Metars F.Rules Stats Wind Profile Meteogram Temp Stats Airport Information Weather charts Add Link Nearby VenuesMetar ALERT Operation Metar Decoded Social comments

AIRNAV info for KMLS